Time;durP1;ratioP1;P1;durP2;ratioP2;P2;SDS_P1;SDS_P2;PMS_P1;PMS_P2;Temp;Humidity;BMP_temperature;BMP_pressure;BME280_temperature;BME280_humidity;BME280_pressure;Samples;Min_cycle;Max_cycle;Signal;HPM_P1;HPM_P2
2021/07/24 00:02:06;;;;;;;14.20;11.50;;;;;;;;;;5074979;28;20452;-83
2021/07/24 00:04:33;;;;;;;12.60;10.03;;;;;;;;;;5075469;28;20447;-83
2021/07/24 00:07:01;;;;;;;12.03;10.83;;;;;;;;;;5075301;28;20483;-84
2021/07/24 00:09:29;;;;;;;15.27;11.23;;;;;;;;;;5075510;28;20437;-83
2021/07/24 00:11:56;;;;;;;13.47;9.80;;;;;;;;;;5075358;28;20477;-83
2021/07/24 00:14:24;;;;;;;11.57;10.23;;;;;;;;;;5075370;28;20442;-85
2021/07/24 00:16:52;;;;;;;14.00;10.37;;;;;;;;;;5075379;28;20445;-83
2021/07/24 00:19:19;;;;;;;11.03;9.90;;;;;;;;;;5074963;28;20455;-83
2021/07/24 00:21:46;;;;;;;15.17;10.40;;;;;;;;;;5075256;28;20448;-83
2021/07/24 00:24:14;;;;;;;12.77;11.33;;;;;;;;;;5075251;28;20441;-83
2021/07/24 00:26:42;;;;;;;12.43;11.00;;;;;;;;;;5075207;28;20447;-83
2021/07/24 00:29:09;;;;;;;11.77;10.07;;;;;;;;;;5075054;28;20456;-83
2021/07/24 00:31:37;;;;;;;13.40;10.90;;;;;;;;;;5075935;28;20572;-83
2021/07/24 00:34:05;;;;;;;14.07;10.43;;;;;;;;;;5074974;28;21039;-81
2021/07/24 00:36:32;;;;;;;12.20;11.00;;;;;;;;;;5075234;28;20529;-82
2021/07/24 00:39:00;;;;;;;14.30;10.40;;;;;;;;;;5074875;28;21040;-82
2021/07/24 00:41:28;;;;;;;13.03;10.33;;;;;;;;;;5074978;28;20449;-80
2021/07/24 00:43:56;;;;;;;15.57;13.00;;;;;;;;;;5074989;28;20447;-82
2021/07/24 00:46:25;;;;;;;12.83;11.07;;;;;;;;;;5074764;28;20443;-80
2021/07/24 00:48:53;;;;;;;14.60;10.90;;;;;;;;;;5074380;28;20449;-80
2021/07/24 00:51:27;;;;;;;13.00;10.10;;;;;;;;;;5074235;28;20473;-80
2021/07/24 00:53:55;;;;;;;13.47;10.13;;;;;;;;;;5074658;28;20428;-80
2021/07/24 00:56:24;;;;;;;11.70;9.93;;;;;;;;;;5074324;28;20449;-82
2021/07/24 00:58:51;;;;;;;12.83;10.40;;;;;;;;;;5074533;28;20495;-82
2021/07/24 01:01:18;;;;;;;10.37;9.30;;;;;;;;;;5074760;28;20451;-83
2021/07/24 01:03:45;;;;;;;12.20;10.43;;;;;;;;;;5074356;28;20786;-80
2021/07/24 01:06:14;;;;;;;17.20;10.43;;;;;;;;;;5073777;28;20444;-82
2021/07/24 01:08:43;;;;;;;14.37;10.50;;;;;;;;;;5074528;28;20438;-81
2021/07/24 01:11:12;;;;;;;12.93;9.77;;;;;;;;;;5074193;28;20533;-79
2021/07/24 01:13:40;;;;;;;13.50;10.07;;;;;;;;;;5073561;28;21001;-81
2021/07/24 01:16:07;;;;;;;14.00;8.97;;;;;;;;;;5074381;28;20439;-82
2021/07/24 01:18:34;;;;;;;11.73;9.40;;;;;;;;;;5074101;28;20452;-82
2021/07/24 01:21:04;;;;;;;10.97;9.30;;;;;;;;;;5074121;28;20444;-82
2021/07/24 01:23:33;;;;;;;10.70;8.50;;;;;;;;;;5074060;28;20531;-80
2021/07/24 01:26:00;;;;;;;11.23;9.40;;;;;;;;;;5074385;28;20487;-80
2021/07/24 01:28:29;;;;;;;10.43;9.30;;;;;;;;;;5074016;28;20449;-80
2021/07/24 01:30:56;;;;;;;14.03;9.50;;;;;;;;;;5074038;28;20480;-82
2021/07/24 01:33:24;;;;;;;12.07;9.23;;;;;;;;;;5073611;28;20450;-81
2021/07/24 01:35:52;;;;;;;14.13;9.03;;;;;;;;;;5073987;28;20436;-82
2021/07/24 01:38:21;;;;;;;15.27;10.67;;;;;;;;;;5073805;28;20449;-83
2021/07/24 01:40:50;;;;;;;17.23;9.00;;;;;;;;;;5074445;28;20453;-83
2021/07/24 01:43:17;;;;;;;12.73;9.10;;;;;;;;;;5073804;28;20535;-84
2021/07/24 01:45:44;;;;;;;10.17;8.90;;;;;;;;;;5074063;28;20446;-83
2021/07/24 01:48:15;;;;;;;10.10;9.10;;;;;;;;;;5073876;28;20452;-83
2021/07/24 01:53:28;;;;;;;13.80;9.40;;;;;;;;;;5074003;28;20500;-83
2021/07/24 01:56:01;;;;;;;16.23;8.80;;;;;;;;;;5073385;28;20441;-83
2021/07/24 01:58:30;;;;;;;12.60;9.63;;;;;;;;;;5073426;28;20441;-84
2021/07/24 02:01:00;;;;;;;13.63;9.97;;;;;;;;;;5073698;28;20445;-83
2021/07/24 02:03:28;;;;;;;11.87;9.00;;;;;;;;;;5073705;28;20540;-83
2021/07/24 02:05:55;;;;;;;12.80;10.17;;;;;;;;;;5073612;28;20445;-82
2021/07/24 02:08:23;;;;;;;10.23;9.07;;;;;;;;;;5073778;28;20473;-79
2021/07/24 02:10:51;;;;;;;10.53;9.47;;;;;;;;;;5073418;28;20485;-82
2021/07/24 02:13:20;;;;;;;11.10;9.17;;;;;;;;;;5074080;28;20450;-81
2021/07/24 02:15:47;;;;;;;11.97;9.13;;;;;;;;;;5073322;28;20451;-82
2021/07/24 02:18:16;;;;;;;10.87;8.43;;;;;;;;;;5073834;28;20438;-82
2021/07/24 02:20:45;;;;;;;11.93;9.60;;;;;;;;;;5073493;28;20453;-81
2021/07/24 02:23:12;;;;;;;11.00;9.70;;;;;;;;;;5073422;28;20794;-82
2021/07/24 02:25:39;;;;;;;9.53;8.53;;;;;;;;;;5075750;28;20451;-82
2021/07/24 02:28:07;;;;;;;11.80;8.87;;;;;;;;;;5077442;28;20463;-82
2021/07/24 02:30:35;;;;;;;12.33;9.30;;;;;;;;;;5077369;28;20447;-83
2021/07/24 02:33:03;;;;;;;11.90;8.40;;;;;;;;;;5077316;28;20438;-84
2021/07/24 02:35:30;;;;;;;9.70;8.47;;;;;;;;;;5076983;28;20535;-83
2021/07/24 02:37:57;;;;;;;13.03;9.17;;;;;;;;;;5076919;28;20449;-82
2021/07/24 02:40:24;;;;;;;11.10;9.33;;;;;;;;;;5077524;28;20466;-83
2021/07/24 02:42:52;;;;;;;10.80;8.93;;;;;;;;;;5077102;28;20449;-82
2021/07/24 02:45:19;;;;;;;13.23;8.10;;;;;;;;;;5076756;28;20445;-82
2021/07/24 02:47:48;;;;;;;10.30;8.37;;;;;;;;;;5076733;28;20450;-82
2021/07/24 02:50:15;;;;;;;12.00;9.03;;;;;;;;;;5077262;28;20444;-82
2021/07/24 02:52:42;;;;;;;12.60;8.97;;;;;;;;;;5076752;28;21062;-82
2021/07/24 02:55:10;;;;;;;14.20;8.80;;;;;;;;;;5076907;28;20446;-83
2021/07/24 02:57:37;;;;;;;10.47;9.00;;;;;;;;;;5076522;28;20994;-83
2021/07/24 03:00:05;;;;;;;10.77;8.80;;;;;;;;;;5076757;28;20443;-83
2021/07/24 03:02:32;;;;;;;11.57;9.83;;;;;;;;;;5076770;28;20451;-83
2021/07/24 03:05:02;;;;;;;16.73;8.70;;;;;;;;;;5076725;28;20539;-83
2021/07/24 03:07:29;;;;;;;11.43;9.10;;;;;;;;;;5076720;28;20472;-83
2021/07/24 03:09:56;;;;;;;9.67;8.50;;;;;;;;;;5076358;28;20448;-83
2021/07/24 03:12:23;;;;;;;11.50;9.33;;;;;;;;;;5077396;28;20560;-83
2021/07/24 03:14:50;;;;;;;9.63;7.90;;;;;;;;;;5076739;28;20533;-83
2021/07/24 03:17:18;;;;;;;10.43;8.37;;;;;;;;;;5077889;28;20543;-83
2021/07/24 03:19:45;;;;;;;10.73;9.50;;;;;;;;;;5076723;28;20447;-82
2021/07/24 03:22:14;;;;;;;10.93;8.10;;;;;;;;;;5076461;28;20448;-82
2021/07/24 03:24:41;;;;;;;11.23;9.03;;;;;;;;;;5076697;28;20471;-82
2021/07/24 03:27:08;;;;;;;12.53;9.20;;;;;;;;;;5076886;28;20956;-83
2021/07/24 03:29:35;;;;;;;11.83;9.60;;;;;;;;;;5077483;28;20926;-82
2021/07/24 03:32:02;;;;;;;10.43;9.30;;;;;;;;;;5076189;28;20473;-82
2021/07/24 03:34:29;;;;;;;10.37;8.80;;;;;;;;;;5076208;28;20438;-83
2021/07/24 03:36:57;;;;;;;13.50;8.53;;;;;;;;;;5075764;28;20439;-83
2021/07/24 03:39:25;;;;;;;10.10;9.10;;;;;;;;;;5076495;28;20444;-83
2021/07/24 03:41:52;;;;;;;9.87;7.87;;;;;;;;;;5076109;28;20447;-82
2021/07/24 03:44:19;;;;;;;10.30;8.43;;;;;;;;;;5076004;28;20446;-83
2021/07/24 03:46:47;;;;;;;10.63;8.57;;;;;;;;;;5075951;28;20920;-84
2021/07/24 03:49:14;;;;;;;8.80;7.90;;;;;;;;;;5075621;28;20956;-82
2021/07/24 03:51:41;;;;;;;10.40;8.80;;;;;;;;;;5075687;28;20477;-83
2021/07/24 03:54:08;;;;;;;11.13;8.27;;;;;;;;;;5075541;28;20950;-83
2021/07/24 03:56:37;;;;;;;11.60;8.33;;;;;;;;;;5075811;28;20944;-83
2021/07/24 03:59:04;;;;;;;11.77;8.03;;;;;;;;;;5075870;28;20445;-84
2021/07/24 04:01:31;;;;;;;9.97;7.87;;;;;;;;;;5076224;28;20444;-79
2021/07/24 04:03:58;;;;;;;9.63;8.23;;;;;;;;;;5076057;28;20439;-84
2021/07/24 04:06:26;;;;;;;12.63;8.60;;;;;;;;;;5075170;28;20542;-83
2021/07/24 04:08:54;;;;;;;11.67;8.87;;;;;;;;;;5075601;28;20433;-83
2021/07/24 04:11:21;;;;;;;10.47;8.03;;;;;;;;;;5075392;28;20452;-82
2021/07/24 04:13:50;;;;;;;9.87;8.87;;;;;;;;;;5075181;28;20926;-85
2021/07/24 04:16:17;;;;;;;12.80;8.23;;;;;;;;;;5075944;28;20449;-84
2021/07/24 04:18:45;;;;;;;14.00;8.80;;;;;;;;;;5074933;28;20453;-77
2021/07/24 04:21:12;;;;;;;10.20;7.37;;;;;;;;;;5075035;28;21010;-83
2021/07/24 04:23:40;;;;;;;12.27;8.63;;;;;;;;;;5075244;28;20485;-81
2021/07/24 04:26:07;;;;;;;10.47;7.90;;;;;;;;;;5075856;28;20532;-79
2021/07/24 04:28:34;;;;;;;9.40;7.80;;;;;;;;;;5076293;28;20445;-82
2021/07/24 04:31:03;;;;;;;9.87;8.23;;;;;;;;;;5075153;28;20443;-85
2021/07/24 04:33:30;;;;;;;10.23;7.90;;;;;;;;;;5074950;28;20494;-82
2021/07/24 04:35:57;;;;;;;8.77;7.50;;;;;;;;;;5074644;28;20483;-84
2021/07/24 04:38:24;;;;;;;9.30;7.80;;;;;;;;;;5074985;28;20474;-84
2021/07/24 04:40:52;;;;;;;9.10;7.83;;;;;;;;;;5068661;28;20467;-82
2021/07/24 04:43:19;;;;;;;9.27;8.10;;;;;;;;;;5068891;28;20441;-83
2021/07/24 04:45:46;;;;;;;9.33;8.17;;;;;;;;;;5074724;28;20453;-82
2021/07/24 04:48:15;;;;;;;8.83;7.93;;;;;;;;;;5073411;28;20450;-85
2021/07/24 04:50:43;;;;;;;9.33;7.60;;;;;;;;;;5074301;28;20543;-83
2021/07/24 04:53:11;;;;;;;8.43;7.43;;;;;;;;;;5074217;28;20482;-84
2021/07/24 04:55:39;;;;;;;9.37;7.50;;;;;;;;;;5074703;28;20446;-83
2021/07/24 04:58:07;;;;;;;9.00;8.00;;;;;;;;;;5074586;28;20445;-84
2021/07/24 05:00:35;;;;;;;9.67;8.77;;;;;;;;;;5074739;28;20477;-82
2021/07/24 05:03:02;;;;;;;8.60;7.67;;;;;;;;;;5074223;28;20969;-83
2021/07/24 05:05:30;;;;;;;9.37;7.67;;;;;;;;;;5074261;28;20922;-83
2021/07/24 05:07:58;;;;;;;9.40;8.00;;;;;;;;;;5074461;28;20982;-82
2021/07/24 05:10:25;;;;;;;10.03;7.37;;;;;;;;;;5074180;28;20445;-82
2021/07/24 05:12:52;;;;;;;11.37;8.40;;;;;;;;;;5074788;28;20468;-80
2021/07/24 05:15:19;;;;;;;9.90;7.97;;;;;;;;;;5074132;28;20532;-82
2021/07/24 05:17:46;;;;;;;9.53;7.00;;;;;;;;;;5074398;28;20906;-80
2021/07/24 05:20:13;;;;;;;10.67;7.90;;;;;;;;;;5074210;28;20813;-80
2021/07/24 05:22:42;;;;;;;8.87;7.30;;;;;;;;;;5074122;28;20534;-80
2021/07/24 05:25:10;;;;;;;8.63;7.80;;;;;;;;;;5074395;28;20453;-81
2021/07/24 05:27:37;;;;;;;9.77;7.77;;;;;;;;;;5073746;28;20530;-80
2021/07/24 05:30:04;;;;;;;9.63;7.57;;;;;;;;;;5073747;28;20926;-81
2021/07/24 05:32:32;;;;;;;9.23;7.20;;;;;;;;;;5073893;28;20487;-82
2021/07/24 05:34:59;;;;;;;8.70;7.50;;;;;;;;;;5073905;28;20447;-80
2021/07/24 05:37:26;;;;;;;9.47;8.00;;;;;;;;;;5074159;28;20445;-82
2021/07/24 05:39:55;;;;;;;9.60;7.83;;;;;;;;;;5077157;28;20441;-77
2021/07/24 05:42:22;;;;;;;14.43;8.30;;;;;;;;;;5094076;28;20436;-80
2021/07/24 05:44:49;;;;;;;10.03;8.50;;;;;;;;;;5094030;28;20444;-83
2021/07/24 05:47:16;;;;;;;12.27;7.80;;;;;;;;;;5094467;28;20446;-81
2021/07/24 05:49:43;;;;;;;10.87;7.97;;;;;;;;;;5094489;28;20440;-81
2021/07/24 05:52:11;;;;;;;9.53;8.07;;;;;;;;;;5093823;28;20487;-82
2021/07/24 05:54:39;;;;;;;9.40;7.90;;;;;;;;;;5093540;28;20450;-82
2021/07/24 05:57:08;;;;;;;8.43;7.63;;;;;;;;;;5093628;28;20442;-83
2021/07/24 05:59:35;;;;;;;8.67;7.73;;;;;;;;;;5093595;28;20463;-82
2021/07/24 06:02:05;;;;;;;11.97;9.13;;;;;;;;;;5093955;28;20473;-83
2021/07/24 06:04:32;;;;;;;21.13;9.00;;;;;;;;;;5093603;28;20988;-80
2021/07/24 06:06:59;;;;;;;7.60;6.80;;;;;;;;;;5094045;28;20464;-83
2021/07/24 06:09:27;;;;;;;8.00;7.07;;;;;;;;;;5093769;28;20506;-81
2021/07/24 06:11:54;;;;;;;8.17;7.30;;;;;;;;;;5053483;28;20441;-79
2021/07/24 06:14:23;;;;;;;9.73;7.73;;;;;;;;;;5053460;28;20461;-81
2021/07/24 06:16:50;;;;;;;9.00;7.10;;;;;;;;;;5053292;28;20455;-81
2021/07/24 06:19:17;;;;;;;8.70;7.37;;;;;;;;;;5053591;28;20441;-80
2021/07/24 06:21:44;;;;;;;8.83;7.70;;;;;;;;;;5054909;28;20439;-78
2021/07/24 06:24:12;;;;;;;9.07;7.73;;;;;;;;;;5053746;28;20482;-80
2021/07/24 06:26:39;;;;;;;9.50;8.50;;;;;;;;;;5054336;28;20442;-80
2021/07/24 06:29:06;;;;;;;8.03;7.33;;;;;;;;;;5062829;28;20449;-80
2021/07/24 06:31:35;;;;;;;9.10;8.17;;;;;;;;;;5073306;28;20447;-80
2021/07/24 06:34:04;;;;;;;8.53;7.20;;;;;;;;;;5072821;28;20482;-79
2021/07/24 06:36:31;;;;;;;11.93;8.00;;;;;;;;;;5073096;28;20648;-79
2021/07/24 06:38:58;;;;;;;9.60;7.00;;;;;;;;;;5073361;28;20433;-79
2021/07/24 06:41:26;;;;;;;10.90;8.57;;;;;;;;;;5073904;28;20445;-78
2021/07/24 06:43:54;;;;;;;8.70;7.73;;;;;;;;;;5073241;28;20465;-79
2021/07/24 06:46:22;;;;;;;9.93;7.70;;;;;;;;;;5072621;28;20582;-77
2021/07/24 06:48:53;;;;;;;8.30;7.50;;;;;;;;;;5072929;28;20441;-80
2021/07/24 06:51:20;;;;;;;8.27;7.47;;;;;;;;;;5073575;28;20540;-78
2021/07/24 06:53:47;;;;;;;10.40;7.43;;;;;;;;;;5072978;28;20489;-78
2021/07/24 06:56:14;;;;;;;9.17;7.47;;;;;;;;;;5072773;28;20524;-79
2021/07/24 06:58:41;;;;;;;11.63;7.03;;;;;;;;;;5072682;28;20450;-79
2021/07/24 07:01:09;;;;;;;12.27;6.90;;;;;;;;;;5073389;28;20450;-79
2021/07/24 07:03:36;;;;;;;11.33;8.40;;;;;;;;;;5073496;28;20482;-80
2021/07/24 07:06:07;;;;;;;7.97;7.10;;;;;;;;;;5072682;28;20986;-82
2021/07/24 07:08:34;;;;;;;7.50;6.80;;;;;;;;;;5030127;28;20439;-81
2021/07/24 07:11:05;;;;;;;9.60;7.57;;;;;;;;;;5032465;28;20992;-79
2021/07/24 07:13:32;;;;;;;7.77;6.90;;;;;;;;;;5035461;28;20486;-80
2021/07/24 07:15:59;;;;;;;9.87;7.40;;;;;;;;;;5036565;28;20445;-79
2021/07/24 07:18:26;;;;;;;9.93;8.07;;;;;;;;;;5036786;28;20466;-82
2021/07/24 07:20:53;;;;;;;9.13;7.10;;;;;;;;;;5036016;28;20968;-81
2021/07/24 07:23:22;;;;;;;8.27;7.07;;;;;;;;;;5036427;28;20453;-80
2021/07/24 07:25:49;;;;;;;9.60;8.30;;;;;;;;;;5036407;28;20447;-82
2021/07/24 07:28:16;;;;;;;9.53;7.80;;;;;;;;;;5052015;28;20448;-79
2021/07/24 07:30:44;;;;;;;10.10;8.13;;;;;;;;;;5056299;28;20466;-80
2021/07/24 07:33:12;;;;;;;14.20;7.67;;;;;;;;;;5056337;28;20571;-79
2021/07/24 07:35:39;;;;;;;7.83;7.00;;;;;;;;;;5056065;28;20436;-79
2021/07/24 07:38:06;;;;;;;9.17;8.00;;;;;;;;;;5056050;28;20444;-79
2021/07/24 07:40:39;;;;;;;11.83;8.40;;;;;;;;;;5055734;28;20449;-79
2021/07/24 07:43:07;;;;;;;10.43;7.90;;;;;;;;;;5055548;28;20433;-80
2021/07/24 07:45:34;;;;;;;11.30;8.47;;;;;;;;;;5055250;28;20456;-80
2021/07/24 07:48:01;;;;;;;11.73;8.20;;;;;;;;;;5055764;28;20460;-82
2021/07/24 07:50:30;;;;;;;12.90;8.43;;;;;;;;;;5055634;28;20441;-81
2021/07/24 07:52:57;;;;;;;9.80;8.80;;;;;;;;;;5055426;28;20478;-83
2021/07/24 07:55:24;;;;;;;9.93;8.93;;;;;;;;;;5055876;28;20442;-82
2021/07/24 07:57:53;;;;;;;17.73;9.17;;;;;;;;;;5055725;28;20445;-83
2021/07/24 08:00:20;;;;;;;8.30;7.60;;;;;;;;;;5055908;28;20796;-82
2021/07/24 08:02:51;;;;;;;8.93;8.03;;;;;;;;;;5055528;28;20447;-82
2021/07/24 08:05:19;;;;;;;13.60;9.03;;;;;;;;;;5055839;28;20458;-81
2021/07/24 08:07:46;;;;;;;9.03;7.77;;;;;;;;;;5083316;28;20467;-80
2021/07/24 08:10:13;;;;;;;10.63;8.13;;;;;;;;;;5096168;28;20444;-81
2021/07/24 08:12:40;;;;;;;9.83;8.67;;;;;;;;;;5095991;28;20440;-82
2021/07/24 08:15:09;;;;;;;9.13;8.27;;;;;;;;;;5095389;28;20526;-81
2021/07/24 08:17:37;;;;;;;12.20;8.37;;;;;;;;;;5095465;28;20455;-80
2021/07/24 08:20:04;;;;;;;14.43;9.13;;;;;;;;;;5095663;28;20767;-80
2021/07/24 08:22:32;;;;;;;10.57;9.03;;;;;;;;;;5095234;28;20444;-76
2021/07/24 08:24:59;;;;;;;11.23;9.90;;;;;;;;;;5096099;28;20530;-81
2021/07/24 08:27:26;;;;;;;12.80;11.33;;;;;;;;;;5096033;28;20436;-78
2021/07/24 08:29:53;;;;;;;11.80;9.30;;;;;;;;;;5095047;28;20451;-78
2021/07/24 08:32:22;;;;;;;10.50;9.20;;;;;;;;;;5095006;28;20444;-74
2021/07/24 08:34:50;;;;;;;11.60;8.53;;;;;;;;;;5095557;28;20497;-80
2021/07/24 08:37:17;;;;;;;11.10;10.10;;;;;;;;;;5095261;28;20447;-78
2021/07/24 08:39:45;;;;;;;17.07;10.20;;;;;;;;;;5095858;28;20482;-75
2021/07/24 08:42:28;;;;;;;15.27;9.57;;;;;;;;;;5095262;28;20448;-77
2021/07/24 08:44:55;;;;;;;9.37;8.43;;;;;;;;;;5094788;28;20436;-76
2021/07/24 08:47:24;;;;;;;9.80;8.70;;;;;;;;;;5067216;28;20461;-77
2021/07/24 08:49:52;;;;;;;13.30;10.00;;;;;;;;;;5073845;28;20447;-77
2021/07/24 08:52:20;;;;;;;10.97;8.80;;;;;;;;;;5074098;28;20454;-77
2021/07/24 08:54:49;;;;;;;9.83;8.43;;;;;;;;;;5074344;28;20473;-78
2021/07/24 08:57:18;;;;;;;13.87;9.37;;;;;;;;;;5074627;28;20436;-78
2021/07/24 08:59:46;;;;;;;9.97;8.97;;;;;;;;;;5074266;28;20472;-78
2021/07/24 09:02:14;;;;;;;12.80;10.20;;;;;;;;;;5074138;28;20436;-77
2021/07/24 09:04:48;;;;;;;13.87;8.83;;;;;;;;;;5074376;28;20941;-77
2021/07/24 09:07:16;;;;;;;14.60;9.00;;;;;;;;;;5074301;28;21000;-79
2021/07/24 09:09:44;;;;;;;12.23;9.90;;;;;;;;;;5074073;28;20966;-79
2021/07/24 09:12:12;;;;;;;11.13;9.00;;;;;;;;;;5073919;28;20539;-76
2021/07/24 09:14:39;;;;;;;11.10;9.67;;;;;;;;;;5074304;28;20563;-77
2021/07/24 09:17:07;;;;;;;11.70;10.30;;;;;;;;;;5074091;28;20452;-77
2021/07/24 09:19:35;;;;;;;11.97;9.53;;;;;;;;;;5073822;28;20478;-77
2021/07/24 09:22:03;;;;;;;11.47;10.27;;;;;;;;;;5074067;28;20444;-77
2021/07/24 09:24:30;;;;;;;14.47;9.90;;;;;;;;;;5074061;28;20456;-76
2021/07/24 09:26:58;;;;;;;9.70;8.70;;;;;;;;;;5074055;28;20441;-79
2021/07/24 09:29:25;;;;;;;12.57;9.60;;;;;;;;;;5074787;28;20445;-77
2021/07/24 09:31:52;;;;;;;12.03;10.83;;;;;;;;;;5074393;28;20536;-76
2021/07/24 09:34:19;;;;;;;11.80;10.57;;;;;;;;;;5072601;28;20490;-79
2021/07/24 09:36:47;;;;;;;12.63;8.90;;;;;;;;;;5073493;28;20535;-77
2021/07/24 09:39:16;;;;;;;14.33;9.80;;;;;;;;;;5073667;28;20484;-77
2021/07/24 09:41:44;;;;;;;10.80;9.70;;;;;;;;;;5073941;28;20536;-78
2021/07/24 09:44:12;;;;;;;13.90;10.90;;;;;;;;;;5073621;28;20444;-77
2021/07/24 09:46:39;;;;;;;12.27;10.97;;;;;;;;;;5084078;28;20440;-79
2021/07/24 09:49:13;;;;;;;16.67;14.07;;;;;;;;;;5093908;28;20543;-79
2021/07/24 09:51:41;;;;;;;25.77;19.77;;;;;;;;;;5094248;28;20846;-79
2021/07/24 09:54:23;;;;;;;13.53;11.13;;;;;;;;;;5093863;28;20830;-77
2021/07/24 09:56:52;;;;;;;12.50;10.97;;;;;;;;;;5094003;28;20768;-79
2021/07/24 09:59:20;;;;;;;13.33;9.87;;;;;;;;;;5094253;28;20784;-81
2021/07/24 10:01:54;;;;;;;12.93;9.57;;;;;;;;;;5093934;28;20436;-79
2021/07/24 10:04:25;;;;;;;11.20;10.00;;;;;;;;;;5093397;28;20950;-73
2021/07/24 10:06:55;;;;;;;9.70;8.80;;;;;;;;;;5093702;28;20492;-78
2021/07/24 10:09:25;;;;;;;12.67;10.33;;;;;;;;;;5093636;28;20441;-78
2021/07/24 10:11:55;;;;;;;10.77;9.17;;;;;;;;;;5093552;28;20441;-77
2021/07/24 10:14:23;;;;;;;11.80;9.90;;;;;;;;;;5093002;28;20493;-79
2021/07/24 10:16:51;;;;;;;14.10;10.27;;;;;;;;;;5093286;28;20443;-78
2021/07/24 10:19:18;;;;;;;10.20;9.20;;;;;;;;;;5093626;28;20452;-78
2021/07/24 10:22:12;;;;;;;11.80;10.10;;;;;;;;;;5093480;28;20436;-79
2021/07/24 10:24:40;;;;;;;12.00;9.60;;;;;;;;;;5093384;28;20972;-78
2021/07/24 10:27:11;;;;;;;12.30;10.13;;;;;;;;;;5093520;28;20448;-78
2021/07/24 10:29:40;;;;;;;17.93;10.67;;;;;;;;;;5093240;28;20465;-78
2021/07/24 10:32:08;;;;;;;11.10;10.07;;;;;;;;;;5093200;28;20944;-78
2021/07/24 10:34:38;;;;;;;11.33;10.20;;;;;;;;;;5093854;28;20823;-75
2021/07/24 10:37:20;;;;;;;10.77;9.47;;;;;;;;;;5093386;28;20940;-75
2021/07/24 10:39:47;;;;;;;15.27;10.23;;;;;;;;;;5093038;28;20461;-75
2021/07/24 10:42:15;;;;;;;12.43;10.03;;;;;;;;;;5093289;28;20456;-75
2021/07/24 10:44:45;;;;;;;12.83;10.63;;;;;;;;;;5092984;28;20443;-75
2021/07/24 10:47:19;;;;;;;11.60;10.40;;;;;;;;;;5096274;28;20450;-71
2021/07/24 10:50:02;;;;;;;13.53;10.23;;;;;;;;;;5097305;28;20494;-75
2021/07/24 10:52:47;;;;;;;12.70;9.00;;;;;;;;;;5097442;28;20761;-75
2021/07/24 10:55:15;;;;;;;10.63;9.63;;;;;;;;;;5096435;28;21094;-76
2021/07/24 10:58:01;;;;;;;10.23;9.33;;;;;;;;;;5097155;28;20471;-77
2021/07/24 11:00:40;;;;;;;10.73;9.70;;;;;;;;;;5096760;28;20445;-77
2021/07/24 11:03:27;;;;;;;10.80;9.80;;;;;;;;;;5097183;28;20514;-77
2021/07/24 11:05:55;;;;;;;14.53;11.00;;;;;;;;;;5096977;28;20618;-77
2021/07/24 11:08:42;;;;;;;17.13;10.30;;;;;;;;;;5097281;28;20569;-78
2021/07/24 11:11:12;;;;;;;12.63;10.00;;;;;;;;;;5096850;28;20483;-78
2021/07/24 11:13:48;;;;;;;12.03;9.50;;;;;;;;;;5096400;28;21004;-77
2021/07/24 11:16:17;;;;;;;13.27;10.23;;;;;;;;;;5096415;28;20437;-76
2021/07/24 11:19:04;;;;;;;10.53;9.43;;;;;;;;;;5096912;28;20457;-77
2021/07/24 11:21:50;;;;;;;11.93;10.10;;;;;;;;;;5078437;28;20452;-77
2021/07/24 11:24:17;;;;;;;11.30;10.20;;;;;;;;;;5060371;28;20457;-77
2021/07/24 11:26:44;;;;;;;12.13;10.30;;;;;;;;;;5056159;28;20450;-75
2021/07/24 11:29:23;;;;;;;13.20;10.43;;;;;;;;;;5070812;28;20481;-76
2021/07/24 11:31:52;;;;;;;11.47;9.80;;;;;;;;;;5076502;28;20458;-77
2021/07/24 11:34:21;;;;;;;11.30;10.10;;;;;;;;;;5075941;28;20830;-78
2021/07/24 11:36:50;;;;;;;11.07;10.07;;;;;;;;;;5075115;28;20951;-70
2021/07/24 11:39:17;;;;;;;12.13;10.60;;;;;;;;;;5074277;28;20441;-75
2021/07/24 11:41:44;;;;;;;13.20;11.57;;;;;;;;;;5075074;28;20445;-75
2021/07/24 11:44:11;;;;;;;12.20;10.17;;;;;;;;;;5075343;28;20447;-75
2021/07/24 11:46:39;;;;;;;12.53;10.53;;;;;;;;;;5075441;28;20414;-73
2021/07/24 11:49:08;;;;;;;11.93;10.77;;;;;;;;;;5075826;28;20477;-72
2021/07/24 11:51:35;;;;;;;11.47;10.10;;;;;;;;;;5076139;28;20438;-72
2021/07/24 11:54:03;;;;;;;11.60;10.50;;;;;;;;;;5075360;28;20475;-72
2021/07/24 11:56:31;;;;;;;13.17;11.47;;;;;;;;;;5075672;28;20523;-73
2021/07/24 11:58:59;;;;;;;11.77;10.57;;;;;;;;;;5074709;28;20901;-72
2021/07/24 12:01:27;;;;;;;14.83;11.10;;;;;;;;;;5075966;28;20434;-74
2021/07/24 12:04:03;;;;;;;11.33;10.13;;;;;;;;;;5075672;28;20448;-74
2021/07/24 12:06:32;;;;;;;11.60;10.40;;;;;;;;;;5075173;28;20454;-72
2021/07/24 12:08:59;;;;;;;12.47;10.97;;;;;;;;;;5075188;28;20894;-75
2021/07/24 12:11:27;;;;;;;12.93;10.33;;;;;;;;;;5075671;28;20451;-74
2021/07/24 12:14:05;;;;;;;12.10;10.90;;;;;;;;;;5075345;28;20419;-74
2021/07/24 12:16:36;;;;;;;13.13;10.73;;;;;;;;;;5075578;28;20430;-74
2021/07/24 12:19:11;;;;;;;11.40;10.40;;;;;;;;;;5075113;28;20425;-73
2021/07/24 12:21:40;;;;;;;14.20;11.87;;;;;;;;;;5075365;28;20457;-72
2021/07/24 12:24:09;;;;;;;13.50;12.07;;;;;;;;;;5075176;28;20507;-72
2021/07/24 12:26:38;;;;;;;12.67;11.37;;;;;;;;;;5075293;28;20447;-72
2021/07/24 12:29:21;;;;;;;20.90;10.97;;;;;;;;;;5075811;28;20774;-71
2021/07/24 12:31:54;;;;;;;12.20;10.60;;;;;;;;;;5075360;28;20470;-73
2021/07/24 12:34:22;;;;;;;12.50;11.27;;;;;;;;;;5075379;28;20826;-71
2021/07/24 12:36:55;;;;;;;14.53;12.57;;;;;;;;;;5075013;28;20466;-72
2021/07/24 12:39:23;;;;;;;12.73;11.53;;;;;;;;;;5074849;28;20439;-72
2021/07/24 12:42:00;;;;;;;15.97;11.47;;;;;;;;;;5074709;28;20431;-73
2021/07/24 12:44:27;;;;;;;13.43;12.07;;;;;;;;;;5074838;28;20524;-73
2021/07/24 12:47:11;;;;;;;12.60;11.30;;;;;;;;;;5074774;28;20562;-73
2021/07/24 12:49:38;;;;;;;12.90;11.60;;;;;;;;;;5074579;28;20467;-76
2021/07/24 12:52:20;;;;;;;13.17;11.67;;;;;;;;;;5074566;28;20411;-75
2021/07/24 12:55:01;;;;;;;12.20;10.40;;;;;;;;;;5074042;28;20475;-74
2021/07/24 12:57:28;;;;;;;12.70;11.40;;;;;;;;;;5074941;28;20408;-75
2021/07/24 12:59:55;;;;;;;18.53;11.40;;;;;;;;;;5074642;28;20442;-75
2021/07/24 13:02:22;;;;;;;12.20;10.90;;;;;;;;;;5068350;28;20538;-77
2021/07/24 13:04:51;;;;;;;12.90;11.03;;;;;;;;;;5057257;28;20428;-78
2021/07/24 13:07:21;;;;;;;13.97;11.90;;;;;;;;;;5054234;28;20482;-77
2021/07/24 13:09:48;;;;;;;12.50;11.20;;;;;;;;;;5053659;28;20448;-78
2021/07/24 13:12:17;;;;;;;13.13;11.73;;;;;;;;;;5054358;28;20640;-77
2021/07/24 13:14:44;;;;;;;15.13;11.83;;;;;;;;;;5053851;28;20451;-81
2021/07/24 13:17:11;;;;;;;14.03;10.67;;;;;;;;;;5053884;28;20796;-82
2021/07/24 13:19:38;;;;;;;11.57;10.57;;;;;;;;;;5055422;28;20526;-81
2021/07/24 13:22:05;;;;;;;14.23;11.10;;;;;;;;;;5053921;28;20538;-82
2021/07/24 13:24:34;;;;;;;13.47;12.17;;;;;;;;;;5054138;28;20491;-82
2021/07/24 13:29:48;;;;;;;12.23;10.90;;;;;;;;;;5053855;28;20377;-82
2021/07/24 13:32:15;;;;;;;16.10;11.10;;;;;;;;;;5080358;28;20469;-82
2021/07/24 13:34:42;;;;;;;20.93;11.60;;;;;;;;;;5094167;28;20957;-82
2021/07/24 13:37:10;;;;;;;16.93;12.60;;;;;;;;;;5094298;28;20421;-81
2021/07/24 13:39:37;;;;;;;13.33;11.50;;;;;;;;;;5094332;28;20439;-83
2021/07/24 13:42:04;;;;;;;16.90;14.07;;;;;;;;;;5093902;28;20496;-83
2021/07/24 13:44:32;;;;;;;12.80;11.57;;;;;;;;;;5093682;28;20908;-82
2021/07/24 13:47:00;;;;;;;13.70;12.30;;;;;;;;;;5094213;28;20418;-83
2021/07/24 13:49:28;;;;;;;12.67;11.37;;;;;;;;;;5094037;28;20412;-84
2021/07/24 13:51:55;;;;;;;13.23;11.77;;;;;;;;;;5093661;28;20530;-85
2021/07/24 13:54:22;;;;;;;17.47;11.97;;;;;;;;;;5093892;28;20436;-86
2021/07/24 13:56:49;;;;;;;12.80;11.40;;;;;;;;;;5093970;28;20410;-84
2021/07/24 13:59:17;;;;;;;13.47;12.27;;;;;;;;;;5093533;28;20443;-83
2021/07/24 14:01:44;;;;;;;13.93;11.67;;;;;;;;;;5093885;28;20420;-85
2021/07/24 14:04:12;;;;;;;14.17;11.73;;;;;;;;;;5094600;28;20476;-84
2021/07/24 14:06:40;;;;;;;13.03;11.47;;;;;;;;;;5093262;28;20455;-82
2021/07/24 14:09:07;;;;;;;20.43;14.10;;;;;;;;;;5094009;28;20427;-84
2021/07/24 14:11:34;;;;;;;13.00;11.67;;;;;;;;;;5094451;28;20484;-84
2021/07/24 14:14:01;;;;;;;12.53;10.57;;;;;;;;;;5093824;28;20510;-82
2021/07/24 14:16:29;;;;;;;14.33;12.80;;;;;;;;;;5093724;28;20481;-85
2021/07/24 14:18:56;;;;;;;16.07;11.50;;;;;;;;;;5093567;28;20453;-83
2021/07/24 14:21:25;;;;;;;24.90;14.87;;;;;;;;;;5095061;28;20415;-84
2021/07/24 14:23:54;;;;;;;18.17;13.13;;;;;;;;;;5097842;28;20801;-84
2021/07/24 14:26:21;;;;;;;15.53;11.83;;;;;;;;;;5095772;28;20458;-83
2021/07/24 14:28:48;;;;;;;19.53;10.73;;;;;;;;;;5066207;28;20537;-84
2021/07/24 14:31:16;;;;;;;20.80;12.27;;;;;;;;;;5077382;28;20455;-80
2021/07/24 14:33:43;;;;;;;15.23;11.90;;;;;;;;;;5077395;28;20447;-81
2021/07/24 14:36:13;;;;;;;12.90;11.63;;;;;;;;;;5077241;28;20481;-79
2021/07/24 14:38:42;;;;;;;16.30;11.97;;;;;;;;;;5077655;28;20436;-83
2021/07/24 14:41:10;;;;;;;14.37;12.87;;;;;;;;;;5077328;28;20446;-81
2021/07/24 14:43:39;;;;;;;14.20;12.13;;;;;;;;;;5077166;28;20446;-81